Aurora, CO (80010)

5:10 AM MDT on August 30, 2015 (GMT -0600)
stapleton bluff lake | | Change Station
CLOSE
Current Station
Personal Weather Station
Location: Denver, CO
Elevation: 5348 ft
Nearby Weather Stations

Elev 5348 ft 39.76 °N, 104.86 °W | Updated 12 minutes ago

Partly Cloudy
Partly Cloudy
67.2 °F
Feels Like 67.2 °F
N
0.0
Wind Variable Wind from SW
Gusts 4.0 mph

Today
High -- | Low -- °F
--% Chance of Precip.
Yesterday
High -- | Low -- °F
Precip. -- in
6:25 AM 7:34 PM
Full, 99% visible
Pressure 29.87 in
Visibility 10.0 miles
Clouds Mostly Cloudy 12000 ft
Dew Point 44 °F
Humidity 43%
Rainfall 0.00 in
Snow Depth Not available.
UV 0 out of 12
Pollen 10.70 out of 12
Air Quality Not available.
Flu Activity Not available.
METAR KBKF 301058Z 20009KT 10SM BKN120 19/05 A3012 RMK AO2A SLP115 T01930052
Pressure 29.87 in
Visibility 10.0 miles
Clouds Mostly Cloudy 12000 ft
Dew Point 44 °F
Humidity 43%
Rainfall 0.00 in
Snow Depth Not available.
UV 0 out of 12
Pollen 10.70 out of 12
Air Quality Not available.
Flu Activity Not available.
METAR KBKF 301058Z 20009KT 10SM BKN120 19/05 A3012 RMK AO2A SLP115 T01930052

10-Day Weather Forecast

×

Almanac

Astronomy

Aug. 30, 2015 Rise Set
Actual Time
Civil Twilight
Nautical Twilight
Astronomical Twilight
Moon
Length of Visible Light
Length of Day
Tomorrow will be .
, % of the Moon is Illuminated

Today's Extremes

State Highs State Lows

Community

WunderPhotos

Upload Photos

1,850,925 photos uploaded!

WunderBlogs® & News

Nearby

Air Quality

  Air Quality AQ Index Pollutant
Not available.

Snow Depth

Station Depth Elevation

Earthquake Activity

City Distance Mag. Time & Date
Minimum magnitude displayed is 2.5.

Coastal Water Temperatures

Place Temperature

Stations

Nearby Weather Stations

Station Location Temp. Windchill Dew Point Humidity Wind Precip. Elev Updated Type